Página principal
METAR-TAF:

METAR-TAF

Aeroportos :

Kuwait, Kuwait

Aeroporto Internacional do Kuwait

latitude: 29-13N, longitude: 047-59E, altura: 55 m

Observação actual do tempo

O boletim foi feito há 1 hora e 4 minutos, às 18:00 UTC
Vento 5 kt de sul
Temperatura 38°C
Humidade 29%
Pressão 999 hPa
Visibilidade 10 km ou mais
sem nuvens abaixo de 1500 metros e sem cumulonimbus

METAR: OKBK 281800Z 19005KT CAVOK 38/17 Q0999 NOSIG

Hora: 22:04 (19:04 UTC)

Previsão

O boletim foi feito há 2 horas e 19 minutos, às 16:45 UTC
Previsão válida de 28 às 18 UTC a 29 às 24 UTC
Vento 8 kt de oes-noroeste com rajadas de 18 kt
Visibilidade: 7000 m

TAF: OKBK 281645Z 2818/2924 30008G18KT 7000 NSC

Observações e previsões do tempo de mais de 4000 aeroportos (mensagens METAR e TAF).

As estações disponíveis são os pontos amarelos e vermelhos sobre o mapa.

Mova o rato sobre o mapa para ver o nome da estação.

Depois clique no ponto para visualizar as observações e previsões meteorológicas.

Para alterar o mapa : clique nos botões verdes com uma cruz preta para aumentar o zoom; no botão verde com uma pitada de zoom; ou nas setas verdes para mapas adjacentes.


METAR-TAF: